createdAt,value
2023-04-18T00:01:55.766Z,97277.60
2023-04-18T00:04:24.132Z,97282.00
2023-04-18T00:06:52.636Z,97282.40
2023-04-18T00:09:20.876Z,97279.60
2023-04-18T00:11:49.217Z,97284.00
2023-04-18T00:14:17.589Z,97287.80
2023-04-18T00:16:46.473Z,97290.60
2023-04-18T00:19:14.760Z,97293.60
2023-04-18T00:21:45.075Z,97289.00
2023-04-18T00:24:13.616Z,97289.00
2023-04-18T00:26:42.000Z,97291.20
2023-04-18T00:29:10.111Z,97291.40
2023-04-18T00:31:38.181Z,97301.00
2023-04-18T00:34:06.344Z,97298.40
2023-04-18T00:36:34.439Z,97301.80
2023-04-18T00:39:02.896Z,97300.80
2023-04-18T00:41:31.491Z,97300.60
2023-04-18T00:43:59.883Z,97301.40
2023-04-18T00:46:28.476Z,97305.00
2023-04-18T00:48:56.758Z,97305.20
2023-04-18T00:51:24.874Z,97306.00
2023-04-18T00:53:53.090Z,97307.60
2023-04-18T00:56:23.881Z,97311.00
2023-04-18T00:58:51.860Z,97308.80
2023-04-18T01:01:20.002Z,97303.60
2023-04-18T01:03:48.322Z,97304.00
2023-04-18T01:06:16.460Z,97303.60
2023-04-18T01:08:44.917Z,97302.80
2023-04-18T01:11:13.189Z,97301.40
2023-04-18T01:13:41.485Z,97300.00
2023-04-18T01:16:09.658Z,97298.40
2023-04-18T01:18:40.482Z,97296.00
2023-04-18T01:21:09.435Z,97291.40
2023-04-18T01:23:37.732Z,97300.20
2023-04-18T01:26:07.113Z,97296.80
2023-04-18T01:28:36.834Z,97295.20
2023-04-18T01:31:05.358Z,97298.00
2023-04-18T01:33:33.638Z,97303.40
2023-04-18T01:36:01.908Z,97299.40
2023-04-18T01:38:33.235Z,97293.20
2023-04-18T01:41:02.603Z,97293.00
2023-04-18T01:43:30.989Z,97298.40
2023-04-18T01:45:59.059Z,97295.60
2023-04-18T01:48:27.130Z,97297.20
2023-04-18T01:50:55.415Z,97295.20
2023-04-18T01:53:24.191Z,97288.80
2023-04-18T01:55:52.312Z,97291.20
2023-04-18T01:58:23.780Z,97295.00
2023-04-18T02:00:52.778Z,97296.60
2023-04-18T02:03:22.822Z,97291.00
2023-04-18T02:05:51.773Z,97290.40
2023-04-18T02:08:19.864Z,97290.80
2023-04-18T02:10:47.958Z,97286.20
2023-04-18T02:13:16.074Z,97286.20
2023-04-18T02:15:46.131Z,97289.00
2023-04-18T02:18:17.542Z,97287.20
2023-04-18T02:20:45.728Z,97288.60
2023-04-18T02:23:22.620Z,97291.20
2023-04-18T02:25:50.985Z,97289.60
2023-04-18T02:28:19.102Z,97289.00
2023-04-18T02:30:47.174Z,97288.40
2023-04-18T02:33:15.233Z,97292.00
2023-04-18T02:35:43.520Z,97294.60
2023-04-18T02:38:11.702Z,97291.00
2023-04-18T02:40:39.867Z,97291.80
2023-04-18T02:43:08.298Z,97291.20
2023-04-18T02:45:36.339Z,97293.40
2023-04-18T02:48:05.133Z,97297.20
2023-04-18T02:50:35.567Z,97299.80
2023-04-18T02:53:04.008Z,97297.80
2023-04-18T02:55:41.945Z,97296.60
2023-04-18T02:58:10.106Z,97297.40
2023-04-18T03:00:58.351Z,97294.80
2023-04-18T03:03:45.672Z,97300.60
2023-04-18T03:06:34.006Z,97298.60
2023-04-18T03:09:03.726Z,97299.00
2023-04-18T03:11:33.336Z,97302.80
2023-04-18T03:14:01.713Z,97306.40
2023-04-18T03:16:35.914Z,97299.80
2023-04-18T03:19:05.516Z,97302.00
2023-04-18T03:21:34.936Z,97307.00
2023-04-18T03:24:02.989Z,97302.60
2023-04-18T03:26:31.161Z,97298.00
2023-04-18T03:28:59.454Z,97301.60
2023-04-18T03:31:27.636Z,97296.20
2023-04-18T03:33:55.993Z,97294.80
2023-04-18T03:36:25.556Z,97300.80
2023-04-18T03:38:55.229Z,97302.40
2023-04-18T03:41:24.973Z,97301.80
2023-04-18T03:43:53.196Z,97303.00
2023-04-18T03:46:22.265Z,97306.00
2023-04-18T03:48:51.868Z,97305.80
2023-04-18T03:51:20.340Z,97308.00
2023-04-18T03:53:48.440Z,97309.80
2023-04-18T03:56:18.122Z,97314.00
2023-04-18T03:58:49.609Z,97315.20
2023-04-18T04:01:17.898Z,97319.20
2023-04-18T04:03:46.799Z,97322.60
2023-04-18T04:06:15.683Z,97326.20
2023-04-18T04:08:45.579Z,97331.40
2023-04-18T04:11:13.832Z,97323.20
2023-04-18T04:13:42.339Z,97327.00
2023-04-18T04:16:11.347Z,97331.20
2023-04-18T04:18:39.597Z,97333.80
2023-04-18T04:21:08.357Z,97335.20
2023-04-18T04:23:49.905Z,97334.80
2023-04-18T04:26:37.768Z,97340.00
2023-04-18T04:29:11.009Z,97347.00
2023-04-18T04:31:39.700Z,97342.00
2023-04-18T04:34:08.988Z,97345.80
2023-04-18T04:36:37.349Z,97346.40
2023-04-18T04:39:06.713Z,97348.40
2023-04-18T04:41:44.464Z,97347.80
2023-04-18T04:44:14.480Z,97342.00
2023-04-18T04:46:45.040Z,97345.60
2023-04-18T04:49:19.054Z,97344.80
2023-04-18T04:51:47.243Z,97341.80
2023-04-18T04:54:17.937Z,97348.40
2023-04-18T04:56:46.173Z,97349.20
2023-04-18T04:59:14.682Z,97351.80
2023-04-18T05:01:47.041Z,97346.80
2023-04-18T05:04:18.683Z,97349.20
2023-04-18T05:06:47.087Z,97348.60
2023-04-18T05:09:15.368Z,97352.40
2023-04-18T05:11:43.546Z,97355.60
2023-04-18T05:14:13.027Z,97357.20
2023-04-18T05:16:41.812Z,97359.60
2023-04-18T05:19:09.899Z,97361.80
2023-04-18T05:21:38.176Z,97362.40
2023-04-18T05:24:06.765Z,97370.40
2023-04-18T05:26:35.445Z,97368.60
2023-04-18T05:29:03.616Z,97370.40
2023-04-18T05:31:31.680Z,97371.40
2023-04-18T05:34:00.194Z,97374.00
2023-04-18T05:36:28.718Z,97377.40
2023-04-18T05:38:56.831Z,97380.20
2023-04-18T05:41:24.902Z,97380.80
2023-04-18T05:44:04.337Z,97380.60
2023-04-18T05:46:33.782Z,97380.20
2023-04-18T05:49:02.656Z,97375.20
2023-04-18T05:51:32.157Z,97370.20
2023-04-18T05:54:00.522Z,97373.00
2023-04-18T05:56:29.044Z,97380.00
2023-04-18T05:58:57.356Z,97380.80
2023-04-18T06:01:25.528Z,97379.20
2023-04-18T06:03:55.101Z,97382.40
2023-04-18T06:06:23.730Z,97384.60
2023-04-18T06:08:51.816Z,97386.00
2023-04-18T06:11:23.243Z,97385.40
2023-04-18T06:13:51.376Z,97384.80
2023-04-18T06:16:19.920Z,97383.40
2023-04-18T06:18:48.184Z,97382.40
2023-04-18T06:21:16.362Z,97384.60
2023-04-18T06:23:44.529Z,97384.60
2023-04-18T06:26:12.755Z,97379.80
2023-04-18T06:28:41.394Z,97379.60
2023-04-18T06:31:09.505Z,97377.40
2023-04-18T06:33:38.157Z,97372.60
2023-04-18T06:36:07.452Z,97373.40
2023-04-18T06:38:35.726Z,97374.00
2023-04-18T06:41:04.231Z,97375.20
2023-04-18T06:43:32.378Z,97375.60
2023-04-18T06:46:05.802Z,97372.40
2023-04-18T06:48:34.057Z,97371.00
2023-04-18T06:51:03.135Z,97371.40
2023-04-18T06:53:31.424Z,97375.80
2023-04-18T06:55:59.629Z,97374.20
2023-04-18T06:58:27.689Z,97372.40
2023-04-18T07:00:56.095Z,97369.60
2023-04-18T07:03:24.507Z,97367.00
2023-04-18T07:05:52.715Z,97373.60
2023-04-18T07:08:20.871Z,97370.20
2023-04-18T07:10:58.155Z,97373.40
2023-04-18T07:13:29.305Z,97371.60
2023-04-18T07:15:57.760Z,97378.00
2023-04-18T07:18:37.449Z,97377.00
2023-04-18T07:21:07.939Z,97380.80
2023-04-18T07:23:37.149Z,97384.60
2023-04-18T07:26:06.176Z,97382.20
2023-04-18T07:28:34.522Z,97382.80
2023-04-18T07:31:03.852Z,97382.00
2023-04-18T07:33:33.939Z,97381.20
2023-04-18T07:36:03.027Z,97384.40
2023-04-18T07:38:31.413Z,97382.00
2023-04-18T07:41:00.238Z,97383.60
2023-04-18T07:43:35.700Z,97385.80
2023-04-18T07:46:03.778Z,97379.40
2023-04-18T07:48:34.673Z,97385.60
2023-04-18T07:51:03.892Z,97380.80
2023-04-18T07:53:32.337Z,97384.40
2023-04-18T07:56:00.816Z,97377.80
2023-04-18T07:58:29.372Z,97376.80
2023-04-18T08:00:57.516Z,97375.00
2023-04-18T08:03:27.945Z,97371.60
2023-04-18T08:05:56.915Z,97370.40
2023-04-18T08:08:25.173Z,97364.40
2023-04-18T08:10:56.352Z,97371.20
2023-04-18T08:13:25.039Z,97368.20
2023-04-18T08:15:53.682Z,97365.80
2023-04-18T08:18:23.317Z,97370.80
2023-04-18T08:20:54.863Z,97366.40
2023-04-18T08:23:23.115Z,97370.60
2023-04-18T08:25:51.734Z,97368.60
2023-04-18T08:28:19.951Z,97364.60
2023-04-18T08:30:49.311Z,97364.40
2023-04-18T08:33:18.775Z,97365.20
2023-04-18T08:35:46.847Z,97361.80
2023-04-18T08:38:16.274Z,97359.60
2023-04-18T08:40:47.396Z,97369.20
2023-04-18T08:43:15.978Z,97363.40
2023-04-18T08:45:44.710Z,97362.60
2023-04-18T08:48:15.376Z,97358.00
2023-04-18T08:50:44.071Z,97354.40
2023-04-18T08:53:12.365Z,97351.80
2023-04-18T08:55:42.436Z,97346.00
2023-04-18T08:58:16.883Z,97353.60
2023-04-18T09:00:52.659Z,97362.00
2023-04-18T09:03:44.253Z,97344.40
2023-04-18T09:06:19.143Z,97345.80
2023-04-18T09:08:58.933Z,97353.80
2023-04-18T09:11:29.636Z,97342.00
2023-04-18T09:13:59.246Z,97347.40
2023-04-18T09:16:31.440Z,97349.80
2023-04-18T09:19:14.136Z,97343.60
2023-04-18T09:21:46.328Z,97355.60
2023-04-18T09:24:24.167Z,97350.20
2023-04-18T09:26:54.123Z,97347.20
2023-04-18T09:29:23.420Z,97348.60
2023-04-18T09:32:01.440Z,97348.20
2023-04-18T09:34:29.870Z,97349.20
2023-04-18T09:37:08.222Z,97349.00
2023-04-18T09:39:42.161Z,97346.20
2023-04-18T09:42:14.029Z,97347.00
2023-04-18T09:45:06.137Z,97346.00
2023-04-18T09:47:36.825Z,97321.20
2023-04-18T09:50:11.925Z,97336.40
2023-04-18T09:52:41.381Z,97332.80
2023-04-18T09:55:13.899Z,97337.20
2023-04-18T09:57:47.340Z,97345.20
2023-04-18T10:00:26.725Z,97337.20
2023-04-18T10:03:08.207Z,97329.60
2023-04-18T10:05:37.760Z,97337.40
2023-04-18T10:08:06.406Z,97325.60
2023-04-18T10:10:34.723Z,97332.60
2023-04-18T10:13:02.911Z,97334.00
2023-04-18T10:15:31.272Z,97332.40
2023-04-18T10:18:05.119Z,97318.80
2023-04-18T10:20:35.461Z,97325.40
2023-04-18T10:23:36.037Z,97332.00
2023-04-18T10:26:05.637Z,97320.00
2023-04-18T10:28:59.084Z,97328.60
2023-04-18T10:31:28.590Z,97326.80
2023-04-18T10:36:32.531Z,97315.80
2023-04-18T10:39:04.044Z,97329.40
2023-04-18T10:41:33.250Z,97312.40
2023-04-18T10:44:10.388Z,97302.60
2023-04-18T10:46:53.643Z,97312.20
2023-04-18T10:49:27.791Z,97298.80
2023-04-18T10:52:00.939Z,97302.00
2023-04-18T10:54:59.205Z,97297.60
2023-04-18T10:57:40.116Z,97291.60
2023-04-18T11:00:11.675Z,97292.00
2023-04-18T11:02:40.496Z,97299.40
2023-04-18T11:05:09.934Z,97299.60
2023-04-18T11:07:53.802Z,97298.60
2023-04-18T11:10:26.757Z,97298.40
2023-04-18T11:12:56.132Z,97303.60
2023-04-18T11:15:25.174Z,97304.80
2023-04-18T11:18:01.451Z,97308.00
2023-04-18T11:20:30.369Z,97286.20
2023-04-18T11:22:59.860Z,97282.80
2023-04-18T11:25:32.311Z,97286.20
2023-04-18T11:28:01.230Z,97292.20
2023-04-18T11:30:36.957Z,97279.20
2023-04-18T11:33:07.587Z,97281.20
2023-04-18T11:35:39.689Z,97273.60
2023-04-18T11:38:08.271Z,97281.40
2023-04-18T11:40:37.133Z,97283.20
2023-04-18T11:43:06.837Z,97276.80
2023-04-18T11:45:41.562Z,97283.60
2023-04-18T11:48:12.814Z,97286.00
2023-04-18T11:50:41.052Z,97271.80
2023-04-18T11:53:09.150Z,97266.60
2023-04-18T11:55:37.327Z,97259.00
2023-04-18T11:58:07.036Z,97259.00
2023-04-18T12:00:46.916Z,97256.40
2023-04-18T12:03:16.754Z,97247.20
2023-04-18T12:05:45.564Z,97240.80
2023-04-18T12:08:22.866Z,97248.20
2023-04-18T12:10:53.086Z,97252.80
2023-04-18T12:13:26.518Z,97251.80
2023-04-18T12:15:54.980Z,97239.60
2023-04-18T12:18:23.529Z,97239.80
2023-04-18T12:21:13.919Z,97235.40
2023-04-18T12:23:46.105Z,97242.00
2023-04-18T12:26:23.066Z,97240.60
2023-04-18T12:28:58.545Z,97240.80
2023-04-18T12:31:49.796Z,97232.60
2023-04-18T12:34:18.274Z,97230.60
2023-04-18T12:36:47.072Z,97227.60
2023-04-18T12:39:21.375Z,97225.20
2023-04-18T12:41:52.880Z,97223.60
2023-04-18T12:44:38.125Z,97234.20
2023-04-18T12:47:19.407Z,97221.20
2023-04-18T12:49:50.504Z,97236.00
2023-04-18T12:52:21.199Z,97231.60
2023-04-18T12:54:52.999Z,97216.40
2023-04-18T12:57:25.996Z,97216.00
2023-04-18T13:00:06.575Z,97218.80
2023-04-18T13:02:37.607Z,97212.40
2023-04-18T13:05:09.820Z,97209.20
2023-04-18T13:07:40.641Z,97215.00
2023-04-18T13:10:21.893Z,97206.60
2023-04-18T13:12:50.981Z,97202.20
2023-04-18T13:15:23.012Z,97206.60
2023-04-18T13:17:56.805Z,97198.60
2023-04-18T13:20:25.704Z,97201.40
2023-04-18T13:22:54.033Z,97200.00
2023-04-18T13:25:22.990Z,97192.60
2023-04-18T13:27:58.663Z,97185.20
2023-04-18T13:30:26.997Z,97181.00
2023-04-18T13:32:55.360Z,97185.00
2023-04-18T13:35:23.756Z,97188.40
2023-04-18T13:37:52.227Z,97185.40
2023-04-18T13:40:20.879Z,97181.40
2023-04-18T13:42:51.731Z,97184.80
2023-04-18T13:45:20.864Z,97184.80
2023-04-18T13:47:49.256Z,97180.00
2023-04-18T13:50:17.497Z,97175.80
2023-04-18T13:52:48.227Z,97176.00
2023-04-18T13:55:16.597Z,97176.80
2023-04-18T13:57:45.025Z,97177.80
2023-04-18T14:00:14.448Z,97171.20
2023-04-18T14:02:42.694Z,97170.20
2023-04-18T14:05:11.115Z,97170.80
2023-04-18T14:07:39.585Z,97163.20
2023-04-18T14:10:08.209Z,97167.80
2023-04-18T14:12:36.332Z,97169.00
2023-04-18T14:15:05.052Z,97167.00
2023-04-18T14:17:33.470Z,97180.40
2023-04-18T14:20:08.865Z,97178.80
2023-04-18T14:22:37.030Z,97177.00
2023-04-18T14:25:05.784Z,97181.40
2023-04-18T14:27:34.121Z,97175.80
2023-04-18T14:30:02.385Z,97172.60
2023-04-18T14:32:30.539Z,97173.40
2023-04-18T14:34:59.319Z,97172.80
2023-04-18T14:37:27.566Z,97175.40
2023-04-18T14:39:55.865Z,97172.40
2023-04-18T14:42:27.299Z,97171.40
2023-04-18T14:44:55.901Z,97167.20
2023-04-18T14:47:31.080Z,97172.80
2023-04-18T14:49:59.556Z,97168.20
2023-04-18T14:52:33.132Z,97176.40
2023-04-18T14:55:01.484Z,97183.00
2023-04-18T14:57:35.642Z,97176.60
2023-04-18T15:00:10.162Z,97177.80
2023-04-18T15:02:41.790Z,97177.00
2023-04-18T15:05:20.743Z,97172.80
2023-04-18T15:07:51.143Z,97180.60
2023-04-18T15:10:22.766Z,97180.80
2023-04-18T15:12:54.087Z,97173.80
2023-04-18T15:15:22.855Z,97181.00
2023-04-18T15:17:51.203Z,97174.40
2023-04-18T15:20:30.487Z,97172.60
2023-04-18T15:23:18.606Z,97170.20
2023-04-18T15:25:55.748Z,97181.40
2023-04-18T15:28:29.258Z,97182.20
2023-04-18T15:30:57.518Z,97179.80
2023-04-18T15:33:31.300Z,97183.00
2023-04-18T15:36:15.868Z,97196.80
2023-04-18T15:38:52.905Z,97194.40
2023-04-18T15:41:24.310Z,97193.40
2023-04-18T15:43:53.256Z,97192.00
2023-04-18T15:46:22.304Z,97196.00
2023-04-18T15:48:53.403Z,97203.40
2023-04-18T15:51:33.225Z,97211.60
2023-04-18T15:54:04.574Z,97203.40
2023-04-18T15:56:37.002Z,97196.60
2023-04-18T15:59:11.109Z,97197.20
2023-04-18T16:01:45.250Z,97202.80
2023-04-18T16:04:17.498Z,97204.60
2023-04-18T16:06:48.389Z,97201.00
2023-04-18T16:09:16.735Z,97207.00
2023-04-18T16:11:45.602Z,97209.00
2023-04-18T16:14:33.770Z,97215.80
2023-04-18T16:17:05.303Z,97216.80
2023-04-18T16:19:40.105Z,97211.00
2023-04-18T16:22:16.176Z,97215.80
2023-04-18T16:24:53.524Z,97222.40
2023-04-18T16:27:24.767Z,97224.80
2023-04-18T16:29:55.906Z,97229.00
2023-04-18T16:32:26.580Z,97221.80
2023-04-18T16:35:07.812Z,97226.60
2023-04-18T16:37:38.925Z,97230.60
2023-04-18T16:40:20.649Z,97229.80
2023-04-18T16:43:09.297Z,97228.40
2023-04-18T16:45:45.843Z,97230.40
2023-04-18T16:48:31.015Z,97230.60
2023-04-18T16:50:59.345Z,97228.20
2023-04-18T16:53:32.452Z,97232.60
2023-04-18T16:56:09.276Z,97237.40
2023-04-18T16:58:50.425Z,97237.40
2023-04-18T17:01:52.497Z,97243.40
2023-04-18T17:04:32.978Z,97242.40
2023-04-18T17:07:06.502Z,97243.80
2023-04-18T17:09:42.622Z,97239.20
2023-04-18T17:12:13.860Z,97240.40
2023-04-18T17:14:42.395Z,97242.40
2023-04-18T17:17:14.281Z,97247.00
2023-04-18T17:20:01.219Z,97241.60
2023-04-18T17:22:32.023Z,97261.60
2023-04-18T17:25:02.000Z,97247.00
2023-04-18T17:27:30.502Z,97248.80
2023-04-18T17:29:59.182Z,97246.20
2023-04-18T17:32:29.725Z,97243.00
2023-04-18T17:34:58.560Z,97247.20
2023-04-18T17:37:55.286Z,97249.80
2023-04-18T17:40:40.134Z,97250.60
2023-04-18T17:43:45.914Z,97249.00
2023-04-18T17:46:30.376Z,97256.40
2023-04-18T17:49:24.550Z,97254.80
2023-04-18T17:52:18.040Z,97255.20
2023-04-18T17:55:26.739Z,97255.40
2023-04-18T17:58:18.349Z,97249.40
2023-04-18T18:01:30.621Z,97256.40
2023-04-18T18:04:19.894Z,97262.40
2023-04-18T18:07:23.832Z,97263.20
2023-04-18T18:10:19.044Z,97264.20
2023-04-18T18:13:15.288Z,97267.80
2023-04-18T18:15:54.535Z,97275.20
2023-04-18T18:19:02.172Z,97281.20
2023-04-18T18:21:56.211Z,97275.60
2023-04-18T18:24:55.457Z,97280.00
2023-04-18T18:27:46.823Z,97269.80
2023-04-18T18:30:31.230Z,97267.80
2023-04-18T18:33:18.148Z,97271.60
2023-04-18T18:36:20.686Z,97267.20
2023-04-18T18:39:10.446Z,97264.00
2023-04-18T18:42:03.156Z,97272.40
2023-04-18T18:45:05.506Z,97260.60
2023-04-18T18:47:50.396Z,97259.40
2023-04-18T18:50:57.381Z,97263.40
2023-04-18T18:54:19.252Z,97259.00
2023-04-18T18:57:04.647Z,97255.40
2023-04-18T18:59:36.050Z,97257.20
2023-04-18T19:02:27.067Z,97259.60
2023-04-18T19:05:26.790Z,97261.60
2023-04-18T19:08:11.897Z,97256.00
2023-04-18T19:10:53.864Z,97253.20
2023-04-18T19:13:27.080Z,97255.20
2023-04-18T19:15:58.755Z,97260.60
2023-04-18T19:18:27.496Z,97255.40
2023-04-18T19:21:10.663Z,97258.80
2023-04-18T19:23:38.944Z,97258.40
2023-04-18T19:26:35.348Z,97256.20
2023-04-18T19:29:11.185Z,97256.40
2023-04-18T19:32:03.205Z,97261.80
2023-04-18T19:34:58.169Z,97260.00
2023-04-18T19:37:47.316Z,97262.80
2023-04-18T19:40:31.014Z,97260.60
2023-04-18T19:43:04.986Z,97260.00
2023-04-18T19:45:36.506Z,97266.80
2023-04-18T19:48:13.267Z,97264.80
2023-04-18T19:51:00.350Z,97270.80
2023-04-18T19:53:45.171Z,97269.00
2023-04-18T19:56:28.983Z,97273.00
2023-04-18T19:58:59.696Z,97272.00
2023-04-18T20:01:36.855Z,97276.40
2023-04-18T20:04:10.442Z,97279.40
2023-04-18T20:06:45.469Z,97279.40
2023-04-18T20:09:34.024Z,97279.60
2023-04-18T20:12:19.212Z,97274.80
2023-04-18T20:15:12.993Z,97277.80
2023-04-18T20:17:43.587Z,97275.20
2023-04-18T20:20:15.375Z,97276.60
2023-04-18T20:22:44.840Z,97279.40
2023-04-18T20:25:21.328Z,97280.40
2023-04-18T20:27:50.024Z,97280.80
2023-04-18T20:30:36.234Z,97279.60
2023-04-18T20:33:13.161Z,97282.80
2023-04-18T20:35:41.810Z,97279.00
2023-04-18T20:38:11.385Z,97280.20
2023-04-18T20:40:39.901Z,97281.40
2023-04-18T20:43:08.268Z,97282.00
2023-04-18T20:45:54.963Z,97280.00
2023-04-18T20:48:32.150Z,97279.60
2023-04-18T20:51:16.398Z,97277.80
2023-04-18T20:54:18.020Z,97275.80
2023-04-18T20:57:02.628Z,97272.40
2023-04-18T20:59:37.266Z,97276.60
2023-04-18T21:02:11.225Z,97270.80
2023-04-18T21:04:46.757Z,97273.20
2023-04-18T21:07:24.401Z,97276.40
2023-04-18T21:09:55.637Z,97274.60
2023-04-18T21:12:32.467Z,97277.40
2023-04-18T21:15:03.709Z,97279.40
2023-04-18T21:17:40.693Z,97274.40
2023-04-18T21:20:17.083Z,97267.00
2023-04-18T21:22:59.353Z,97269.40
2023-04-18T21:25:33.692Z,97267.00
2023-04-18T21:28:13.451Z,97262.20
2023-04-18T21:30:57.592Z,97263.80
2023-04-18T21:33:42.108Z,97263.00
2023-04-18T21:36:18.918Z,97259.60
2023-04-18T21:39:00.551Z,97256.80
2023-04-18T21:41:40.532Z,97262.40
2023-04-18T21:44:18.840Z,97257.60
2023-04-18T21:47:16.032Z,97266.20
2023-04-18T21:49:55.912Z,97266.60
2023-04-18T21:52:50.315Z,97265.40
2023-04-18T21:55:24.204Z,97266.00
2023-04-18T21:58:09.557Z,97268.20
2023-04-18T22:00:56.314Z,97267.00
2023-04-18T22:03:37.906Z,97260.40
2023-04-18T22:06:12.618Z,97261.60
2023-04-18T22:09:01.079Z,97260.40
2023-04-18T22:11:38.607Z,97257.40
2023-04-18T22:14:12.435Z,97260.40
2023-04-18T22:16:59.747Z,97252.60
2023-04-18T22:19:45.021Z,97253.40
2023-04-18T22:22:21.256Z,97256.20
2023-04-18T22:25:07.376Z,97247.20
2023-04-18T22:27:45.207Z,97242.20
2023-04-18T22:30:24.078Z,97244.60
2023-04-18T22:33:03.991Z,97246.40
2023-04-18T22:35:46.338Z,97244.40
2023-04-18T22:38:28.116Z,97240.60
2023-04-18T22:41:13.263Z,97241.40
2023-04-18T22:43:43.897Z,97239.40
2023-04-18T22:46:33.457Z,97237.80
2023-04-18T22:49:10.714Z,97232.00
2023-04-18T22:51:46.591Z,97233.60
2023-04-18T22:54:31.716Z,97225.80
2023-04-18T22:57:14.092Z,97228.20
2023-04-18T22:59:47.646Z,97226.60
2023-04-18T23:02:24.694Z,97226.80
2023-04-18T23:05:04.411Z,97223.60
2023-04-18T23:07:52.935Z,97218.20
2023-04-18T23:10:36.924Z,97221.60
2023-04-18T23:13:15.713Z,97217.00
2023-04-18T23:16:14.976Z,97209.00
2023-04-18T23:19:02.128Z,97208.60
2023-04-18T23:21:51.277Z,97203.20
2023-04-18T23:24:39.147Z,97201.00
2023-04-18T23:27:24.789Z,97198.20
2023-04-18T23:30:04.345Z,97197.00
2023-04-18T23:32:43.337Z,97193.60
2023-04-18T23:35:20.192Z,97191.40
2023-04-18T23:38:03.734Z,97187.20
2023-04-18T23:40:48.523Z,97189.00
2023-04-18T23:43:30.463Z,97185.80
2023-04-18T23:46:21.261Z,97187.60
2023-04-18T23:49:03.703Z,97182.00
2023-04-18T23:51:49.818Z,97177.00
2023-04-18T23:54:33.214Z,97171.20
2023-04-18T23:57:16.230Z,97170.60
2023-04-18T23:59:53.103Z,97170.60
